createdAt,value
2022-11-10T00:01:48.250Z,122.93
2022-11-10T00:05:11.044Z,123.25
2022-11-10T00:08:33.064Z,129.30
2022-11-10T00:11:55.149Z,117.32
2022-11-10T00:15:46.029Z,130.02
2022-11-10T00:19:09.648Z,138.00
2022-11-10T00:22:32.156Z,136.60
2022-11-10T00:25:54.000Z,137.27
2022-11-10T00:29:15.773Z,140.93
2022-11-10T00:32:37.585Z,141.55
2022-11-10T00:36:02.968Z,146.13
2022-11-10T00:39:24.956Z,144.50
2022-11-10T00:42:46.682Z,154.35
2022-11-10T00:46:08.493Z,160.70
2022-11-10T00:49:30.608Z,159.25
2022-11-10T00:52:53.947Z,147.95
2022-11-10T00:56:15.930Z,159.32
2022-11-10T00:59:37.934Z,152.32
2022-11-10T01:02:59.961Z,154.90
2022-11-10T01:06:22.768Z,157.75
2022-11-10T01:09:45.865Z,158.40
2022-11-10T01:13:07.555Z,161.40
2022-11-10T01:16:31.258Z,154.07
2022-11-10T01:19:53.154Z,153.88
2022-11-10T01:23:14.763Z,146.15
2022-11-10T01:26:37.794Z,134.68
2022-11-10T01:29:59.748Z,131.80
2022-11-10T01:33:21.747Z,129.43
2022-11-10T01:36:43.693Z,132.32
2022-11-10T01:40:06.155Z,145.43
2022-11-10T01:43:30.002Z,146.30
2022-11-10T01:46:51.765Z,142.57
2022-11-10T01:50:13.841Z,151.02
2022-11-10T01:53:39.757Z,142.25
2022-11-10T01:57:05.197Z,162.73
2022-11-10T02:00:50.965Z,167.63
2022-11-10T02:04:17.630Z,158.23
2022-11-10T02:07:40.118Z,168.25
2022-11-10T02:11:02.071Z,156.68
2022-11-10T02:14:24.399Z,155.65
2022-11-10T02:17:47.938Z,175.27
2022-11-10T02:21:11.273Z,145.18
2022-11-10T02:24:33.508Z,158.75
2022-11-10T02:27:55.043Z,158.40
2022-11-10T02:31:16.801Z,157.75
2022-11-10T02:34:38.557Z,173.80
2022-11-10T02:38:01.730Z,170.60
2022-11-10T02:41:23.784Z,169.68
2022-11-10T02:44:45.393Z,168.55
2022-11-10T02:48:07.633Z,182.45
2022-11-10T02:51:29.336Z,179.95
2022-11-10T02:54:52.207Z,184.98
2022-11-10T02:58:13.710Z,198.88
2022-11-10T03:01:35.625Z,189.77
2022-11-10T03:04:57.281Z,203.77
2022-11-10T03:08:19.064Z,207.50
2022-11-10T03:11:42.144Z,190.38
2022-11-10T03:15:03.957Z,197.32
2022-11-10T03:18:25.848Z,188.57
2022-11-10T03:21:47.533Z,192.40
2022-11-10T03:25:11.185Z,192.07
2022-11-10T03:28:34.475Z,191.40
2022-11-10T03:31:56.106Z,178.93
2022-11-10T03:35:18.019Z,180.07
2022-11-10T03:38:39.605Z,177.75
2022-11-10T03:42:01.360Z,176.65
2022-11-10T03:45:24.720Z,159.45
2022-11-10T03:48:52.035Z,171.32
2022-11-10T03:52:15.709Z,177.45
2022-11-10T03:55:37.469Z,149.82
2022-11-10T03:58:59.182Z,177.93
2022-11-10T04:02:22.561Z,181.68
2022-11-10T04:06:02.345Z,197.57
2022-11-10T04:09:24.376Z,205.43
2022-11-10T04:13:04.895Z,207.18
2022-11-10T04:16:29.111Z,209.85
2022-11-10T04:20:00.176Z,209.20
2022-11-10T04:23:56.681Z,213.05
2022-11-10T04:27:23.019Z,214.80
2022-11-10T04:31:12.893Z,218.55
2022-11-10T04:34:40.000Z,158.15
2022-11-10T04:38:10.394Z,224.52
2022-11-10T04:41:36.549Z,234.68
2022-11-10T04:45:00.786Z,235.65
2022-11-10T04:48:33.607Z,233.48
2022-11-10T04:51:58.134Z,237.45
2022-11-10T04:55:27.905Z,245.50
2022-11-10T04:59:00.963Z,238.03
2022-11-10T05:02:27.824Z,242.90
2022-11-10T05:05:55.376Z,273.15
2022-11-10T05:09:22.795Z,249.30
2022-11-10T05:12:46.263Z,242.20
2022-11-10T05:16:08.964Z,265.98
2022-11-10T05:19:30.907Z,251.63
2022-11-10T05:23:16.863Z,266.30
2022-11-10T05:26:38.712Z,267.80
2022-11-10T05:30:02.105Z,274.70
2022-11-10T05:33:24.195Z,279.92
2022-11-10T05:36:46.477Z,272.35
2022-11-10T05:40:09.766Z,286.10
2022-11-10T05:43:31.469Z,289.42
2022-11-10T05:46:54.669Z,291.45
2022-11-10T05:50:17.225Z,290.30
2022-11-10T05:53:39.329Z,292.08
2022-11-10T05:57:01.052Z,296.80
2022-11-10T06:00:24.863Z,294.85
2022-11-10T06:03:52.677Z,294.40
2022-11-10T06:07:14.849Z,314.63
2022-11-10T06:10:38.019Z,318.73
2022-11-10T06:14:01.043Z,303.58
2022-11-10T06:17:22.857Z,312.00
2022-11-10T06:20:47.439Z,305.00
2022-11-10T06:24:11.080Z,301.10
2022-11-10T06:27:33.559Z,296.02
2022-11-10T06:30:58.678Z,293.88
2022-11-10T06:34:20.521Z,303.02
2022-11-10T06:37:43.589Z,291.70
2022-11-10T06:41:05.429Z,298.52
2022-11-10T06:44:27.252Z,292.25
2022-11-10T06:47:49.356Z,290.27
2022-11-10T06:51:11.328Z,283.60
2022-11-10T06:54:34.518Z,284.90
2022-11-10T06:57:56.620Z,283.30
2022-11-10T07:01:22.472Z,287.65
2022-11-10T07:04:44.581Z,279.88
2022-11-10T07:08:08.397Z,282.75
2022-11-10T07:11:31.785Z,270.83
2022-11-10T07:14:53.493Z,271.35
2022-11-10T07:18:15.652Z,266.42
2022-11-10T07:21:37.728Z,254.35
2022-11-10T07:24:59.627Z,239.80
2022-11-10T07:28:28.117Z,239.68
2022-11-10T07:31:50.060Z,249.70
2022-11-10T07:35:12.809Z,249.98
2022-11-10T07:38:35.136Z,245.45
2022-11-10T07:41:57.970Z,237.32
2022-11-10T07:45:21.499Z,239.50
2022-11-10T07:48:43.674Z,224.13
2022-11-10T07:52:05.854Z,226.00
2022-11-10T07:55:27.454Z,209.60
2022-11-10T07:58:49.162Z,219.95
2022-11-10T08:02:12.785Z,204.93
2022-11-10T08:05:35.782Z,197.90
2022-11-10T08:08:57.796Z,195.63
2022-11-10T08:12:19.651Z,187.23
2022-11-10T08:15:42.473Z,179.45
2022-11-10T08:19:05.868Z,172.63
2022-11-10T08:22:27.943Z,173.93
2022-11-10T08:25:52.932Z,172.52
2022-11-10T08:29:14.697Z,159.45
2022-11-10T08:32:37.167Z,157.95
2022-11-10T08:36:03.030Z,147.15
2022-11-10T08:39:38.736Z,141.48
2022-11-10T08:43:01.755Z,140.52
2022-11-10T08:46:23.224Z,141.52
2022-11-10T08:49:44.648Z,131.40
2022-11-10T08:53:13.662Z,133.48
2022-11-10T08:56:35.426Z,134.38
2022-11-10T08:59:57.427Z,166.40
2022-11-10T09:03:20.875Z,144.52
2022-11-10T09:06:42.924Z,136.73
2022-11-10T09:10:07.836Z,139.57
2022-11-10T09:13:30.959Z,131.18
2022-11-10T09:16:53.013Z,131.88
2022-11-10T09:20:15.001Z,131.95
2022-11-10T09:23:36.656Z,132.27
2022-11-10T09:26:59.770Z,126.70
2022-11-10T09:30:21.348Z,128.45
2022-11-10T09:33:43.130Z,126.13
2022-11-10T09:37:05.179Z,124.80
2022-11-10T09:40:33.132Z,126.65
2022-11-10T09:44:04.022Z,122.80
2022-11-10T09:47:56.111Z,122.95
2022-11-10T09:51:21.080Z,97.30
2022-11-10T09:54:46.706Z,125.20
2022-11-10T09:58:13.128Z,121.97
2022-11-10T10:01:43.936Z,115.97
2022-11-10T10:05:27.733Z,127.05
2022-11-10T10:09:04.378Z,130.65
2022-11-10T10:12:46.326Z,121.82
2022-11-10T10:16:17.344Z,112.57
2022-11-10T10:19:48.267Z,111.68
2022-11-10T10:23:19.702Z,109.25
2022-11-10T10:26:48.784Z,97.75
2022-11-10T10:30:14.999Z,98.57
2022-11-10T10:33:37.104Z,99.32
2022-11-10T10:37:00.382Z,97.18
2022-11-10T10:40:23.941Z,97.47
2022-11-10T10:43:49.921Z,98.90
2022-11-10T10:47:11.931Z,94.32
2022-11-10T10:50:35.708Z,90.93
2022-11-10T10:53:58.805Z,93.88
2022-11-10T10:57:23.967Z,87.80
2022-11-10T11:00:47.305Z,90.47
2022-11-10T11:04:31.135Z,97.70
2022-11-10T11:07:56.699Z,94.68
2022-11-10T11:11:19.911Z,91.05
2022-11-10T11:14:46.020Z,97.05
2022-11-10T11:18:15.655Z,93.85
2022-11-10T11:21:40.690Z,79.88
2022-11-10T11:25:12.272Z,83.35
2022-11-10T11:28:44.784Z,79.07
2022-11-10T11:32:24.827Z,74.55
2022-11-10T11:35:51.404Z,55.42
2022-11-10T11:39:28.366Z,74.32
2022-11-10T11:43:03.425Z,71.47
2022-11-10T11:46:36.002Z,77.00
2022-11-10T11:50:15.186Z,65.00
2022-11-10T11:53:50.392Z,66.22
2022-11-10T11:57:28.231Z,67.53
2022-11-10T12:01:01.692Z,64.95
2022-11-10T12:04:40.953Z,61.95
2022-11-10T12:08:14.171Z,64.27
2022-11-10T12:11:54.467Z,66.68
2022-11-10T12:15:29.004Z,68.88
2022-11-10T12:18:58.504Z,68.07
2022-11-10T12:22:34.845Z,67.32
2022-11-10T12:26:05.722Z,71.18
2022-11-10T12:29:34.383Z,72.45
2022-11-10T12:33:03.520Z,67.47
2022-11-10T12:36:28.839Z,71.38
2022-11-10T12:39:57.727Z,74.50
2022-11-10T12:43:34.918Z,75.47
2022-11-10T12:47:01.951Z,77.32
2022-11-10T12:50:33.460Z,80.90
2022-11-10T12:53:55.347Z,84.65
2022-11-10T12:57:21.361Z,84.63
2022-11-10T13:00:47.061Z,82.65
2022-11-10T13:04:08.970Z,83.22
2022-11-10T13:07:30.699Z,83.72
2022-11-10T13:10:55.999Z,84.25
2022-11-10T13:14:26.075Z,82.22
2022-11-10T13:17:55.700Z,88.30
2022-11-10T13:21:18.420Z,83.22
2022-11-10T13:24:42.471Z,84.07
2022-11-10T13:28:05.549Z,82.47
2022-11-10T13:31:42.528Z,75.32
2022-11-10T13:35:38.080Z,83.13
2022-11-10T13:39:18.334Z,74.72
2022-11-10T13:42:46.030Z,77.72
2022-11-10T13:46:09.707Z,71.93
2022-11-10T13:49:54.327Z,77.32
2022-11-10T13:53:30.227Z,71.82
2022-11-10T13:57:07.923Z,67.45
2022-11-10T14:00:31.183Z,69.03
2022-11-10T14:03:57.615Z,75.82
2022-11-10T14:07:22.258Z,60.88
2022-11-10T14:10:50.938Z,72.63
2022-11-10T14:14:18.067Z,61.95
2022-11-10T14:17:45.603Z,60.80
2022-11-10T14:21:11.026Z,66.43
2022-11-10T14:24:39.191Z,66.47
2022-11-10T14:28:01.236Z,56.65
2022-11-10T14:31:25.517Z,80.25
2022-11-10T14:34:51.355Z,80.93
2022-11-10T14:38:21.854Z,64.93
2022-11-10T14:41:49.566Z,70.97
2022-11-10T14:45:18.715Z,70.72
2022-11-10T14:48:40.932Z,64.60
2022-11-10T14:52:02.865Z,75.15
2022-11-10T14:55:30.133Z,65.18
2022-11-10T14:58:55.953Z,72.47
2022-11-10T15:02:20.747Z,75.53
2022-11-10T15:05:43.290Z,74.43
2022-11-10T15:09:14.462Z,70.32
2022-11-10T15:12:41.793Z,70.35
2022-11-10T15:16:26.607Z,74.63
2022-11-10T15:19:56.124Z,75.88
2022-11-10T15:23:23.612Z,82.60
2022-11-10T15:26:45.397Z,81.78
2022-11-10T15:30:22.980Z,85.47
2022-11-10T15:33:54.118Z,91.07
2022-11-10T15:37:30.591Z,93.38
2022-11-10T15:41:07.367Z,88.75
2022-11-10T15:44:29.546Z,95.93
2022-11-10T15:47:51.352Z,95.38
2022-11-10T15:51:20.105Z,88.57
2022-11-10T15:54:46.158Z,94.50
2022-11-10T15:58:12.851Z,103.85
2022-11-10T16:01:34.890Z,100.30
2022-11-10T16:04:59.784Z,107.07
2022-11-10T16:08:24.774Z,105.88
2022-11-10T16:11:47.351Z,104.03
2022-11-10T16:15:18.992Z,105.60
2022-11-10T16:18:43.803Z,110.72
2022-11-10T16:22:06.039Z,135.18
2022-11-10T16:25:29.750Z,135.00
2022-11-10T16:28:51.724Z,127.72
2022-11-10T16:32:13.775Z,117.95
2022-11-10T16:35:35.986Z,119.72
2022-11-10T16:38:58.211Z,134.52
2022-11-10T16:42:22.853Z,123.13
2022-11-10T16:45:45.726Z,123.70
2022-11-10T16:49:16.342Z,111.65
2022-11-10T16:52:38.208Z,102.97
2022-11-10T16:56:00.398Z,178.20
2022-11-10T16:59:23.657Z,144.85
2022-11-10T17:02:51.314Z,129.35
2022-11-10T17:06:14.450Z,112.15
2022-11-10T17:09:36.771Z,110.63
2022-11-10T17:12:58.754Z,103.80
2022-11-10T17:16:28.524Z,116.28
2022-11-10T17:19:51.927Z,129.73
2022-11-10T17:23:18.477Z,103.35
2022-11-10T17:26:40.694Z,98.22
2022-11-10T17:30:02.936Z,95.18
2022-11-10T17:33:26.624Z,103.93
2022-11-10T17:36:50.961Z,100.18
2022-11-10T17:40:20.169Z,99.55
2022-11-10T17:43:45.604Z,103.20
2022-11-10T17:47:07.664Z,89.28
2022-11-10T17:50:32.872Z,83.85
2022-11-10T17:53:55.083Z,82.53
2022-11-10T17:57:17.322Z,80.82
2022-11-10T18:00:40.063Z,81.40
2022-11-10T18:04:01.745Z,80.05
2022-11-10T18:07:25.215Z,88.10
2022-11-10T18:10:49.308Z,83.82
2022-11-10T18:14:13.806Z,87.30
2022-11-10T18:17:35.353Z,81.90
2022-11-10T18:20:58.671Z,83.18
2022-11-10T18:24:23.381Z,87.13
2022-11-10T18:27:45.557Z,77.90
2022-11-10T18:31:08.155Z,81.75
2022-11-10T18:34:30.265Z,77.95
2022-11-10T18:37:52.438Z,84.47
2022-11-10T18:41:33.166Z,81.10
2022-11-10T18:44:55.019Z,89.05
2022-11-10T18:48:17.147Z,100.65
2022-11-10T18:51:39.143Z,96.78
2022-11-10T18:55:00.988Z,90.85
2022-11-10T18:58:24.019Z,82.82
2022-11-10T19:01:48.065Z,82.13
2022-11-10T19:05:10.849Z,93.30
2022-11-10T19:08:33.516Z,92.10
2022-11-10T19:11:56.039Z,90.10
2022-11-10T19:15:19.521Z,100.57
2022-11-10T19:18:42.978Z,99.10
2022-11-10T19:22:05.767Z,93.28
2022-11-10T19:25:27.741Z,94.97
2022-11-10T19:28:50.051Z,96.50
2022-11-10T19:32:13.067Z,95.13
2022-11-10T19:35:35.382Z,87.75
2022-11-10T19:38:57.956Z,90.75
2022-11-10T19:42:19.701Z,86.05
2022-11-10T19:45:42.352Z,82.97
2022-11-10T19:49:06.388Z,84.30
2022-11-10T19:52:29.165Z,89.47
2022-11-10T19:55:52.462Z,84.03
2022-11-10T19:59:18.254Z,87.90
2022-11-10T20:02:45.615Z,83.93
2022-11-10T20:06:10.860Z,88.90
2022-11-10T20:09:32.754Z,89.88
2022-11-10T20:12:54.625Z,89.40
2022-11-10T20:16:17.536Z,93.35
2022-11-10T20:19:41.109Z,92.47
2022-11-10T20:23:08.322Z,90.28
2022-11-10T20:26:30.246Z,91.90
2022-11-10T20:29:52.321Z,100.47
2022-11-10T20:33:14.670Z,92.15
2022-11-10T20:36:36.847Z,99.32
2022-11-10T20:40:02.479Z,86.63
2022-11-10T20:43:25.205Z,91.18
2022-11-10T20:46:55.374Z,94.45
2022-11-10T20:50:23.060Z,96.38
2022-11-10T20:53:46.647Z,94.47
2022-11-10T20:57:09.908Z,85.28
2022-11-10T21:00:31.912Z,95.00
2022-11-10T21:03:57.170Z,86.35
2022-11-10T21:07:19.674Z,89.45
2022-11-10T21:10:41.887Z,97.88
2022-11-10T21:14:17.552Z,94.85
2022-11-10T21:17:43.945Z,98.55
2022-11-10T21:21:19.626Z,94.80
2022-11-10T21:24:46.759Z,96.43
2022-11-10T21:28:12.093Z,93.80
2022-11-10T21:31:36.052Z,92.72
2022-11-10T21:34:58.512Z,96.85
2022-11-10T21:38:21.673Z,92.47
2022-11-10T21:41:46.158Z,99.20
2022-11-10T21:45:09.872Z,91.88
2022-11-10T21:48:33.522Z,90.93
2022-11-10T21:51:57.187Z,87.95
2022-11-10T21:55:20.216Z,90.55
2022-11-10T21:58:42.551Z,97.80
2022-11-10T22:02:05.735Z,103.88
2022-11-10T22:05:30.540Z,107.35
2022-11-10T22:08:54.407Z,101.85
2022-11-10T22:12:34.830Z,93.22
2022-11-10T22:16:13.982Z,90.97
2022-11-10T22:19:37.374Z,102.40
2022-11-10T22:23:00.774Z,91.88
2022-11-10T22:26:22.821Z,93.38
2022-11-10T22:29:46.103Z,86.55
2022-11-10T22:33:22.286Z,81.15
2022-11-10T22:36:44.656Z,89.57
2022-11-10T22:40:27.203Z,90.20
2022-11-10T22:44:02.640Z,89.15
2022-11-10T22:47:24.618Z,87.45
2022-11-10T22:50:55.507Z,85.40
2022-11-10T22:54:19.038Z,88.68
2022-11-10T22:57:42.907Z,82.88
2022-11-10T23:01:06.319Z,88.22
2022-11-10T23:04:27.991Z,90.50
2022-11-10T23:07:49.990Z,91.15
2022-11-10T23:11:13.671Z,96.45
2022-11-10T23:14:37.562Z,88.53
2022-11-10T23:18:05.290Z,94.65
2022-11-10T23:21:30.424Z,88.72
2022-11-10T23:24:57.006Z,92.55
2022-11-10T23:28:19.248Z,94.90
2022-11-10T23:31:42.477Z,101.47
2022-11-10T23:35:04.530Z,95.72
2022-11-10T23:38:26.840Z,106.80
2022-11-10T23:41:48.559Z,106.65
2022-11-10T23:45:11.714Z,97.80
2022-11-10T23:48:35.140Z,99.70
2022-11-10T23:51:57.141Z,106.50
2022-11-10T23:55:18.763Z,105.22
2022-11-10T23:58:40.908Z,100.13
